Time;durP1;ratioP1;P1;durP2;ratioP2;P2;SDS_P1;SDS_P2;PMS_P1;PMS_P2;Temp;Humidity;BMP_temperature;BMP_pressure;BME280_temperature;BME280_humidity;BME280_pressure;Samples;Min_cycle;Max_cycle;Signal;HPM_P1;HPM_P2
2022/02/26 00:00:58;;;;;;;1.23;0.65;;;7.20;50.60;;;;;;4962059;28;20045;-78
2022/02/26 00:03:24;;;;;;;3.25;0.40;;;7.10;51.10;;;;;;4966784;28;20066;-79
2022/02/26 00:05:49;;;;;;;0.10;0.10;;;7.10;50.90;;;;;;4965585;28;20043;-79
2022/02/26 00:08:15;;;;;;;0.43;0.17;;;6.90;51.80;;;;;;4964627;28;20197;-78
2022/02/26 00:10:41;;;;;;;1.98;0.32;;;6.90;51.30;;;;;;4966513;28;20034;-78
2022/02/26 00:13:06;;;;;;;1.30;0.32;;;6.90;51.40;;;;;;4960970;28;20159;-78
2022/02/26 00:15:32;;;;;;;1.05;0.40;;;6.90;52.00;;;;;;4955332;28;20030;-79
2022/02/26 00:17:58;;;;;;;0.55;0.20;;;6.80;51.90;;;;;;4955857;28;20458;-78
2022/02/26 00:20:23;;;;;;;1.25;0.30;;;6.90;51.50;;;;;;4964329;28;20429;-78
2022/02/26 00:22:49;;;;;;;0.50;0.20;;;7.00;51.30;;;;;;4966021;28;20062;-78
2022/02/26 00:25:15;;;;;;;1.20;0.20;;;7.00;51.70;;;;;;4963732;28;20037;-79
2022/02/26 00:27:41;;;;;;;1.35;0.43;;;6.90;51.80;;;;;;4956527;28;20038;-78
2022/02/26 00:30:07;;;;;;;0.63;0.15;;;6.90;51.50;;;;;;4954893;28;20057;-78
2022/02/26 00:32:32;;;;;;;0.75;0.40;;;7.00;51.30;;;;;;4959643;28;20034;-78
2022/02/26 00:34:58;;;;;;;0.20;0.15;;;6.90;51.90;;;;;;4957768;28;20049;-78
2022/02/26 00:37:24;;;;;;;0.65;0.10;;;6.70;52.30;;;;;;4955629;28;20586;-78
2022/02/26 00:39:49;;;;;;;0.50;0.20;;;6.80;52.10;;;;;;4955144;28;20035;-77
2022/02/26 00:42:15;;;;;;;0.90;0.30;;;6.90;51.50;;;;;;4965684;28;20034;-77
2022/02/26 00:44:41;;;;;;;0.63;0.20;;;6.90;51.60;;;;;;4960147;28;20405;-77
2022/02/26 00:47:08;;;;;;;0.40;0.20;;;7.00;51.70;;;;;;4964293;28;20117;-78
2022/02/26 00:49:50;;;;;;;1.98;0.30;;;6.70;52.60;;;;;;4962608;28;20062;-78
2022/02/26 00:52:22;;;;;;;2.35;0.32;;;6.70;52.60;;;;;;4950694;28;20043;-78
2022/02/26 00:54:48;;;;;;;0.20;0.10;;;6.60;52.20;;;;;;4964433;28;20050;-78
2022/02/26 00:57:14;;;;;;;1.48;0.30;;;6.60;52.60;;;;;;4966991;28;20019;-77
2022/02/26 00:59:41;;;;;;;0.70;0.20;;;7.00;51.30;;;;;;4968450;28;20492;-77
2022/02/26 01:02:07;;;;;;;1.65;0.10;;;7.00;51.60;;;;;;4966696;28;20541;-77
2022/02/26 01:04:34;;;;;;;0.57;0.10;;;6.90;52.20;;;;;;4964293;28;20413;-77
2022/02/26 01:06:59;;;;;;;0.17;0.10;;;6.70;52.40;;;;;;4967152;28;20035;-77
2022/02/26 01:09:25;;;;;;;1.73;0.35;;;6.70;52.30;;;;;;4967383;28;20045;-78
2022/02/26 01:11:51;;;;;;;2.47;0.45;;;6.50;53.10;;;;;;4968663;28;20549;-77
2022/02/26 01:14:16;;;;;;;2.22;0.35;;;6.40;53.50;;;;;;4966472;28;20205;-77
2022/02/26 01:16:42;;;;;;;0.35;0.15;;;6.20;53.90;;;;;;4967169;28;20382;-77
2022/02/26 01:19:08;;;;;;;3.22;0.30;;;6.50;52.90;;;;;;4967403;28;20064;-77
2022/02/26 01:21:34;;;;;;;1.08;0.20;;;6.60;52.80;;;;;;4966293;28;20457;-77
2022/02/26 01:24:00;;;;;;;0.03;0.03;;;6.70;52.90;;;;;;4964699;28;20046;-77
2022/02/26 01:26:26;;;;;;;2.08;0.40;;;6.70;52.50;;;;;;4967155;28;20163;-77
2022/02/26 01:28:52;;;;;;;1.45;0.80;;;6.60;52.70;;;;;;4967683;28;20090;-78
2022/02/26 01:31:18;;;;;;;1.48;0.20;;;6.50;53.20;;;;;;4967886;28;20081;-77
2022/02/26 01:33:44;;;;;;;2.17;0.47;;;6.30;53.40;;;;;;4966730;28;20489;-77
2022/02/26 01:36:10;;;;;;;0.65;0.20;;;6.40;53.40;;;;;;4967793;28;20034;-78
2022/02/26 01:38:36;;;;;;;0.68;0.20;;;6.30;53.80;;;;;;4966277;28;20029;-77
2022/02/26 01:41:03;;;;;;;0.57;0.20;;;6.30;54.00;;;;;;4964902;28;20065;-77
2022/02/26 01:43:29;;;;;;;0.75;0.20;;;6.30;54.30;;;;;;4966046;28;20042;-77
2022/02/26 01:45:55;;;;;;;1.65;0.30;;;6.40;54.10;;;;;;4967026;28;20366;-78
2022/02/26 01:48:21;;;;;;;1.40;0.32;;;6.30;54.50;;;;;;4966844;28;20101;-77
2022/02/26 01:50:46;;;;;;;2.50;0.50;;;6.30;54.40;;;;;;4969682;28;20023;-77
2022/02/26 01:53:14;;;;;;;0.77;0.10;;;6.20;54.70;;;;;;4969723;28;20081;-78
2022/02/26 01:55:40;;;;;;;2.13;0.52;;;6.10;54.90;;;;;;4965213;28;20058;-78
2022/02/26 01:58:06;;;;;;;1.02;0.20;;;6.20;54.90;;;;;;4967843;28;20504;-77
2022/02/26 02:00:32;;;;;;;0.93;0.25;;;6.10;55.20;;;;;;4968429;28;20034;-77
2022/02/26 02:02:58;;;;;;;2.27;0.30;;;6.20;55.20;;;;;;4929115;28;1138572;-77
2022/02/26 02:05:30;;;;;;;1.52;0.30;;;6.10;56.10;;;;;;4969957;28;20026;-77
2022/02/26 02:07:56;;;;;;;1.27;0.52;;;6.10;55.40;;;;;;4970477;28;20053;-77
2022/02/26 02:10:22;;;;;;;1.13;0.32;;;6.10;55.30;;;;;;4971626;28;20058;-77
2022/02/26 02:12:48;;;;;;;1.08;0.30;;;6.10;55.40;;;;;;4971794;28;20449;-77
2022/02/26 02:15:14;;;;;;;0.43;0.08;;;6.10;55.30;;;;;;4970639;28;20086;-77
2022/02/26 02:17:44;;;;;;;1.45;0.40;;;6.10;55.00;;;;;;4972379;28;20125;-77
2022/02/26 02:20:10;;;;;;;0.50;0.10;;;6.00;56.20;;;;;;4969179;28;20405;-77
2022/02/26 02:22:36;;;;;;;0.52;0.25;;;6.00;55.60;;;;;;4968703;28;20115;-77
2022/02/26 02:25:05;;;;;;;3.80;0.95;;;6.00;55.70;;;;;;4971295;28;20034;-77
2022/02/26 02:27:30;;;;;;;1.10;0.40;;;6.00;55.70;;;;;;4970777;28;20039;-77
2022/02/26 02:29:56;;;;;;;0.63;0.20;;;5.90;55.90;;;;;;4968360;28;20059;-76
2022/02/26 02:32:22;;;;;;;2.50;0.50;;;5.90;56.00;;;;;;4971162;28;20437;-77
2022/02/26 02:34:48;;;;;;;1.45;0.32;;;5.90;56.00;;;;;;4970661;28;20589;-77
2022/02/26 02:37:13;;;;;;;1.02;0.20;;;6.00;55.90;;;;;;4972283;28;20470;-77
2022/02/26 02:39:42;;;;;;;1.27;0.30;;;6.00;56.50;;;;;;4969871;28;20791;-77
2022/02/26 02:42:08;;;;;;;0.43;0.22;;;5.90;56.30;;;;;;4972519;28;20030;-77
2022/02/26 02:44:33;;;;;;;0.20;0.20;;;5.70;56.40;;;;;;4970477;28;20089;-77
2022/02/26 02:46:59;;;;;;;1.30;0.35;;;5.90;56.10;;;;;;4972075;28;20476;-77
2022/02/26 02:49:25;;;;;;;0.45;0.20;;;5.90;56.40;;;;;;4969875;28;20035;-77
2022/02/26 02:51:51;;;;;;;0.32;0.17;;;5.80;56.50;;;;;;4968472;28;20042;-77
2022/02/26 02:54:17;;;;;;;2.40;0.38;;;5.80;56.40;;;;;;4970519;28;20046;-76
2022/02/26 02:56:42;;;;;;;0.38;0.20;;;5.80;56.70;;;;;;4966810;28;20066;-77
2022/02/26 02:59:09;;;;;;;0.85;0.20;;;5.80;56.40;;;;;;4968887;28;20472;-76
2022/02/26 03:01:34;;;;;;;0.77;0.20;;;5.90;56.10;;;;;;4969118;28;20378;-77
2022/02/26 03:04:00;;;;;;;0.80;0.30;;;5.90;56.20;;;;;;4971868;28;20066;-77
2022/02/26 03:06:26;;;;;;;1.45;0.43;;;5.90;56.20;;;;;;4976793;28;20058;-77
2022/02/26 03:08:52;;;;;;;0.98;0.40;;;5.80;56.60;;;;;;4971421;28;20042;-77
2022/02/26 03:11:19;;;;;;;0.80;0.30;;;5.90;56.40;;;;;;4974034;28;20031;-77
2022/02/26 03:13:46;;;;;;;1.27;0.30;;;5.90;56.20;;;;;;4969275;28;20567;-77
2022/02/26 03:16:12;;;;;;;0.75;0.20;;;5.80;56.30;;;;;;4973739;28;20042;-76
2022/02/26 03:18:38;;;;;;;0.80;0.22;;;5.80;56.40;;;;;;4973316;28;20085;-77
2022/02/26 03:21:03;;;;;;;1.05;0.30;;;5.80;56.80;;;;;;4977562;28;20550;-77
2022/02/26 03:23:29;;;;;;;1.80;0.30;;;5.80;56.80;;;;;;4976724;28;20033;-77
2022/02/26 03:25:55;;;;;;;2.75;1.20;;;5.80;56.40;;;;;;4976546;28;20031;-77
2022/02/26 03:28:21;;;;;;;0.63;0.20;;;5.70;57.20;;;;;;4967666;28;20046;-77
2022/02/26 03:30:46;;;;;;;1.38;0.50;;;5.70;57.10;;;;;;4978132;28;20080;-77
2022/02/26 03:33:12;;;;;;;4.00;0.68;;;5.80;56.90;;;;;;4982489;28;20037;-77
2022/02/26 03:35:39;;;;;;;1.90;0.22;;;5.80;56.70;;;;;;4977852;28;20030;-77
2022/02/26 03:38:05;;;;;;;1.27;0.40;;;5.80;56.70;;;;;;4971330;28;20110;-77
2022/02/26 03:40:31;;;;;;;0.50;0.30;;;5.70;57.00;;;;;;4976066;28;20038;-77
2022/02/26 03:42:57;;;;;;;0.47;0.20;;;5.70;56.70;;;;;;4974672;28;20385;-78
2022/02/26 03:45:23;;;;;;;0.70;0.20;;;5.70;56.60;;;;;;4971267;28;20392;-77
2022/02/26 03:47:49;;;;;;;0.82;0.20;;;5.80;56.60;;;;;;4969281;28;20468;-77
2022/02/26 03:50:15;;;;;;;1.38;0.20;;;5.80;57.00;;;;;;4970098;28;20038;-77
2022/02/26 03:52:40;;;;;;;1.65;0.20;;;5.70;57.00;;;;;;4974301;28;20480;-77
2022/02/26 03:55:08;;;;;;;0.10;0.10;;;5.80;56.50;;;;;;4975845;28;20041;-77
2022/02/26 03:57:35;;;;;;;1.75;0.25;;;5.70;56.90;;;;;;4978577;28;20030;-77
2022/02/26 04:00:03;;;;;;;1.63;0.30;;;5.70;57.00;;;;;;4980593;28;20416;-77
2022/02/26 04:02:29;;;;;;;1.75;0.30;;;5.60;57.60;;;;;;4972275;28;20062;-77
2022/02/26 04:04:54;;;;;;;1.30;0.38;;;5.60;57.20;;;;;;4959820;28;20134;-76
2022/02/26 04:07:20;;;;;;;1.42;0.38;;;5.50;57.60;;;;;;4962241;28;20055;-76
2022/02/26 04:09:46;;;;;;;1.25;0.30;;;5.50;58.40;;;;;;4962418;28;20039;-76
2022/02/26 04:12:12;;;;;;;0.80;0.30;;;5.40;58.20;;;;;;4962580;28;20031;-76
2022/02/26 04:14:37;;;;;;;1.38;0.43;;;5.40;58.00;;;;;;4957026;28;20492;-76
2022/02/26 04:17:04;;;;;;;0.35;0.13;;;5.50;58.00;;;;;;4948998;28;20035;-76
2022/02/26 04:19:29;;;;;;;2.17;0.60;;;5.50;57.90;;;;;;4955214;28;20062;-76
2022/02/26 04:21:55;;;;;;;0.20;0.10;;;5.50;57.60;;;;;;4954018;28;20173;-76
2022/02/26 04:24:21;;;;;;;0.90;0.28;;;5.50;57.80;;;;;;4963973;28;20034;-76
2022/02/26 04:26:47;;;;;;;1.17;0.30;;;5.50;57.90;;;;;;4964878;28;20092;-76
2022/02/26 04:29:13;;;;;;;0.60;0.20;;;5.50;57.60;;;;;;4964982;28;20680;-76
2022/02/26 04:31:39;;;;;;;0.55;0.30;;;5.60;57.70;;;;;;4965383;28;20416;-76
2022/02/26 04:34:04;;;;;;;3.15;0.52;;;5.60;57.80;;;;;;4965809;28;20061;-76
2022/02/26 04:36:31;;;;;;;0.75;0.20;;;5.40;58.20;;;;;;4965425;28;20031;-76
2022/02/26 04:38:57;;;;;;;0.80;0.25;;;5.40;58.20;;;;;;4964983;28;20491;-76
2022/02/26 04:41:23;;;;;;;0.57;0.10;;;5.40;58.50;;;;;;4965150;28;20090;-76
2022/02/26 04:43:49;;;;;;;1.38;0.40;;;5.20;58.90;;;;;;4965134;28;20034;-76
2022/02/26 04:46:15;;;;;;;1.13;0.82;;;5.30;58.40;;;;;;4965956;28;20117;-76
2022/02/26 04:48:40;;;;;;;1.38;0.32;;;5.30;58.60;;;;;;4959153;28;20396;-76
2022/02/26 04:51:08;;;;;;;4.10;0.50;;;5.10;59.10;;;;;;4961953;28;20030;-76
2022/02/26 04:53:35;;;;;;;0.57;0.20;;;5.10;58.80;;;;;;4963989;28;20169;-76
2022/02/26 04:56:01;;;;;;;1.70;0.60;;;5.30;58.50;;;;;;4950037;28;21081;-78
2022/02/26 04:58:27;;;;;;;0.52;0.20;;;5.40;58.40;;;;;;4953479;28;20604;-77
2022/02/26 05:00:53;;;;;;;0.35;0.28;;;5.30;58.90;;;;;;4953523;28;20113;-76
2022/02/26 05:03:19;;;;;;;0.70;0.20;;;5.10;58.90;;;;;;4957005;28;20049;-76
2022/02/26 05:05:45;;;;;;;3.08;0.57;;;4.90;59.30;;;;;;4961727;28;20041;-76
2022/02/26 05:08:10;;;;;;;0.25;0.10;;;4.60;60.40;;;;;;4957914;28;20042;-76
2022/02/26 05:10:37;;;;;;;1.38;0.30;;;4.70;60.10;;;;;;4954073;28;20046;-77
2022/02/26 05:13:03;;;;;;;1.65;0.47;;;4.80;59.80;;;;;;4952148;28;20055;-76
2022/02/26 05:15:29;;;;;;;0.45;0.10;;;5.00;59.20;;;;;;4956427;28;20107;-78
2022/02/26 05:17:55;;;;;;;0.57;0.30;;;4.90;59.50;;;;;;4961696;28;20102;-76
2022/02/26 05:20:22;;;;;;;1.20;0.40;;;5.10;59.10;;;;;;4961963;28;20106;-76
2022/02/26 05:22:48;;;;;;;0.50;0.35;;;5.30;58.50;;;;;;4961122;28;20560;-76
2022/02/26 05:25:14;;;;;;;1.85;0.20;;;5.00;59.70;;;;;;4962320;28;20042;-76
2022/02/26 05:27:40;;;;;;;1.45;0.25;;;5.00;59.80;;;;;;4961618;28;20047;-76
2022/02/26 05:30:07;;;;;;;0.90;0.15;;;5.00;59.50;;;;;;4960668;28;20411;-76
2022/02/26 05:32:33;;;;;;;2.40;0.40;;;5.00;59.30;;;;;;4964171;28;20077;-76
2022/02/26 05:34:59;;;;;;;1.08;0.40;;;5.10;58.90;;;;;;4964392;28;20421;-76
2022/02/26 05:37:24;;;;;;;0.68;0.15;;;5.20;58.90;;;;;;4966621;28;20057;-76
2022/02/26 05:39:50;;;;;;;0.63;0.20;;;4.90;60.50;;;;;;4964546;28;20050;-76
2022/02/26 05:42:16;;;;;;;0.50;0.28;;;4.70;60.10;;;;;;4965451;28;20030;-76
2022/02/26 05:44:42;;;;;;;1.63;0.77;;;4.60;61.00;;;;;;4965549;28;20081;-76
2022/02/26 05:47:08;;;;;;;0.00;0.00;;;4.30;61.20;;;;;;4965267;28;20117;-76
2022/02/26 05:49:35;;;;;;;0.77;0.30;;;5.00;58.80;;;;;;4964182;28;20518;-76
2022/02/26 05:52:00;;;;;;;0.75;0.30;;;5.30;58.80;;;;;;4964736;28;20027;-76
2022/02/26 05:54:26;;;;;;;0.82;0.43;;;5.40;58.30;;;;;;4964842;28;20461;-78
2022/02/26 05:56:52;;;;;;;0.65;0.20;;;5.30;58.90;;;;;;4963784;28;20027;-76
2022/02/26 05:59:18;;;;;;;0.90;0.20;;;5.10;59.60;;;;;;4964057;28;20034;-76
2022/02/26 06:01:43;;;;;;;0.95;0.28;;;5.10;58.80;;;;;;4964221;28;20027;-76
2022/02/26 06:04:09;;;;;;;1.02;0.28;;;5.10;59.10;;;;;;4964276;28;20114;-76
2022/02/26 06:06:34;;;;;;;0.95;0.30;;;5.40;58.70;;;;;;4965863;28;20376;-76
2022/02/26 06:09:00;;;;;;;0.30;0.20;;;5.30;58.70;;;;;;4964900;28;20081;-76
2022/02/26 06:11:26;;;;;;;0.90;0.10;;;5.10;59.30;;;;;;4963423;28;20038;-76
2022/02/26 06:13:52;;;;;;;1.90;0.17;;;5.70;57.60;;;;;;4963633;28;20425;-76
2022/02/26 06:16:19;;;;;;;1.05;0.17;;;5.90;56.60;;;;;;4965506;28;20429;-76
2022/02/26 06:18:45;;;;;;;1.13;0.25;;;5.90;56.80;;;;;;4963628;28;20053;-76
2022/02/26 06:21:11;;;;;;;0.65;0.20;;;5.90;56.80;;;;;;4967900;28;20088;-76
2022/02/26 06:23:37;;;;;;;1.33;0.20;;;5.80;57.30;;;;;;4962035;28;20597;-76
2022/02/26 06:26:02;;;;;;;0.32;0.10;;;5.90;57.00;;;;;;4961163;28;20066;-76
2022/02/26 06:28:28;;;;;;;0.52;0.20;;;5.80;57.00;;;;;;4964259;28;20290;-77
2022/02/26 06:30:54;;;;;;;0.28;0.10;;;6.00;56.60;;;;;;4963687;28;20077;-77
2022/02/26 06:33:19;;;;;;;0.45;0.10;;;5.90;57.10;;;;;;4964950;28;20130;-76
2022/02/26 06:35:45;;;;;;;1.45;0.22;;;5.70;57.20;;;;;;4963155;28;20034;-76
2022/02/26 06:38:11;;;;;;;0.65;0.30;;;5.80;57.30;;;;;;4965892;28;20540;-76
2022/02/26 06:40:37;;;;;;;0.47;0.20;;;5.80;56.80;;;;;;4966216;28;20027;-76
2022/02/26 06:43:04;;;;;;;1.10;0.20;;;5.60;58.10;;;;;;4964325;28;20448;-76
2022/02/26 06:45:30;;;;;;;0.03;0.00;;;5.70;57.60;;;;;;4964114;28;20034;-76
2022/02/26 06:47:56;;;;;;;0.88;0.20;;;5.70;57.50;;;;;;4964076;28;20667;-76
2022/02/26 06:50:22;;;;;;;0.98;0.40;;;5.70;57.60;;;;;;4965596;28;20207;-76
2022/02/26 06:52:48;;;;;;;0.63;0.10;;;5.80;57.10;;;;;;4962528;28;20416;-76
2022/02/26 06:55:13;;;;;;;0.57;0.17;;;5.90;56.70;;;;;;4963124;28;20089;-76
2022/02/26 06:57:40;;;;;;;0.20;0.20;;;5.90;57.10;;;;;;4963417;28;20042;-76
2022/02/26 07:00:07;;;;;;;0.10;0.10;;;5.80;57.20;;;;;;4963615;28;20473;-76
2022/02/26 07:02:33;;;;;;;0.30;0.10;;;6.00;56.50;;;;;;4958522;28;20472;-77
2022/02/26 07:04:59;;;;;;;4.53;0.38;;;6.10;56.60;;;;;;4960480;28;20065;-77
2022/02/26 07:07:24;;;;;;;0.52;0.10;;;6.10;56.40;;;;;;4966805;28;20030;-77
2022/02/26 07:09:50;;;;;;;0.20;0.10;;;6.00;56.90;;;;;;4966889;28;20040;-76
2022/02/26 07:12:16;;;;;;;0.32;0.10;;;5.90;57.40;;;;;;4965923;28;20045;-76
2022/02/26 07:14:43;;;;;;;0.17;0.10;;;6.10;56.30;;;;;;4966094;28;20532;-76
2022/02/26 07:17:09;;;;;;;0.57;0.10;;;6.00;57.00;;;;;;4968234;28;20035;-76
2022/02/26 07:19:34;;;;;;;0.68;0.20;;;6.00;57.10;;;;;;4966321;28;20034;-75
2022/02/26 07:22:00;;;;;;;0.65;0.17;;;6.00;56.90;;;;;;4961276;28;20501;-76
2022/02/26 07:24:27;;;;;;;0.22;0.00;;;6.20;56.10;;;;;;4964643;28;20022;-77
2022/02/26 07:26:53;;;;;;;1.25;0.40;;;6.40;55.70;;;;;;4966212;28;20049;-76
2022/02/26 07:29:19;;;;;;;0.93;0.13;;;6.00;57.50;;;;;;4966271;28;20481;-76
2022/02/26 07:31:44;;;;;;;0.63;0.20;;;5.90;58.10;;;;;;4966649;28;20133;-76
2022/02/26 07:34:10;;;;;;;0.60;0.22;;;5.80;58.10;;;;;;4965784;28;20031;-76
2022/02/26 07:36:36;;;;;;;0.77;0.30;;;6.10;56.50;;;;;;4965701;28;20030;-77
2022/02/26 07:39:04;;;;;;;0.25;0.10;;;6.00;57.10;;;;;;4967076;28;20039;-76
2022/02/26 07:41:30;;;;;;;0.88;0.20;;;6.10;57.30;;;;;;4964405;28;20023;-76
2022/02/26 07:43:55;;;;;;;0.30;0.20;;;5.90;58.00;;;;;;4959896;28;20393;-76
2022/02/26 07:46:21;;;;;;;0.55;0.20;;;6.00;58.00;;;;;;4966663;28;20030;-76
2022/02/26 07:48:47;;;;;;;0.30;0.10;;;6.30;56.80;;;;;;4964773;28;20043;-76
2022/02/26 07:51:13;;;;;;;0.80;0.38;;;6.20;57.30;;;;;;4966240;28;20023;-77
2022/02/26 07:53:39;;;;;;;2.70;0.30;;;6.20;57.20;;;;;;4961688;28;20140;-74
2022/02/26 07:56:05;;;;;;;0.38;0.20;;;6.10;57.80;;;;;;4962549;28;20472;-74
2022/02/26 07:58:30;;;;;;;2.22;0.28;;;6.10;57.30;;;;;;4961039;28;20042;-81
2022/02/26 08:00:56;;;;;;;1.05;0.28;;;6.10;57.80;;;;;;4963673;28;20030;-76
2022/02/26 08:03:22;;;;;;;0.20;0.10;;;6.00;58.30;;;;;;4962529;28;20046;-75
2022/02/26 08:05:48;;;;;;;5.63;0.15;;;6.00;58.40;;;;;;4962858;28;20558;-74
2022/02/26 08:08:14;;;;;;;0.32;0.30;;;6.30;57.10;;;;;;4962472;28;20043;-74
2022/02/26 08:10:39;;;;;;;2.78;0.55;;;6.10;58.80;;;;;;4964310;28;20034;-77
2022/02/26 08:13:05;;;;;;;0.35;0.13;;;6.20;57.60;;;;;;4963111;28;20066;-77
2022/02/26 08:15:31;;;;;;;0.90;0.20;;;6.30;56.60;;;;;;4961075;28;20051;-74
2022/02/26 08:17:57;;;;;;;0.90;0.20;;;6.40;57.00;;;;;;4963833;28;20115;-74
2022/02/26 08:20:23;;;;;;;0.88;0.20;;;6.40;57.30;;;;;;4963360;28;20042;-78
2022/02/26 08:22:50;;;;;;;0.80;0.30;;;6.40;56.20;;;;;;4962442;28;20038;-75
2022/02/26 08:25:16;;;;;;;1.95;0.75;;;6.50;57.30;;;;;;4962975;28;20058;-77
2022/02/26 08:27:43;;;;;;;0.80;0.40;;;6.50;57.40;;;;;;4965415;28;20039;-76
2022/02/26 08:30:11;;;;;;;1.25;0.60;;;6.50;58.20;;;;;;4968814;28;20033;-75
2022/02/26 08:32:37;;;;;;;2.67;0.45;;;6.60;57.20;;;;;;4967477;28;20042;-74
2022/02/26 08:35:05;;;;;;;0.50;0.20;;;6.70;56.60;;;;;;4967322;28;20049;-75
2022/02/26 08:37:30;;;;;;;1.25;0.40;;;6.80;57.00;;;;;;4967301;28;20078;-76
2022/02/26 08:39:56;;;;;;;1.50;0.20;;;7.00;57.00;;;;;;4966833;28;20050;-75
2022/02/26 08:42:22;;;;;;;0.35;0.15;;;7.30;56.70;;;;;;4968252;28;20035;-74
2022/02/26 08:44:48;;;;;;;1.63;0.25;;;7.20;56.60;;;;;;4967148;28;20035;-74
2022/02/26 08:47:14;;;;;;;3.60;0.32;;;7.00;56.30;;;;;;4963316;28;20046;-75
2022/02/26 08:49:40;;;;;;;0.20;0.10;;;7.30;55.20;;;;;;4962607;28;20527;-74
2022/02/26 08:52:06;;;;;;;0.77;0.22;;;7.40;54.00;;;;;;4965350;28;20089;-76
2022/02/26 08:54:32;;;;;;;0.75;0.20;;;7.40;54.90;;;;;;4965566;28;20045;-74
2022/02/26 08:56:57;;;;;;;0.25;0.25;;;7.40;54.80;;;;;;4965119;28;20031;-73
2022/02/26 08:59:24;;;;;;;0.45;0.10;;;7.40;55.50;;;;;;4960241;28;20382;-74
2022/02/26 09:01:50;;;;;;;0.55;0.25;;;7.40;54.30;;;;;;4960924;28;20031;-74
2022/02/26 09:04:15;;;;;;;0.43;0.17;;;7.60;54.00;;;;;;4972550;28;20557;-74
2022/02/26 09:06:41;;;;;;;0.47;0.20;;;7.70;53.50;;;;;;4964302;28;20413;-74
2022/02/26 09:09:10;;;;;;;0.50;0.10;;;7.90;54.40;;;;;;4971313;28;20144;-74
2022/02/26 09:11:37;;;;;;;1.08;0.20;;;8.00;57.20;;;;;;4967217;28;20405;-72
2022/02/26 09:14:04;;;;;;;0.10;0.10;;;7.90;53.10;;;;;;4968094;28;20031;-74
2022/02/26 09:16:29;;;;;;;0.68;0.20;;;7.90;53.10;;;;;;4982615;28;20030;-74
2022/02/26 09:18:55;;;;;;;0.25;0.17;;;8.20;56.20;;;;;;4963799;28;20049;-74
2022/02/26 09:21:21;;;;;;;0.25;0.15;;;7.90;53.70;;;;;;4951494;28;20026;-74
2022/02/26 09:23:47;;;;;;;0.90;0.28;;;7.90;55.40;;;;;;4961642;28;20065;-73
2022/02/26 09:26:13;;;;;;;0.50;0.30;;;7.90;53.10;;;;;;4971455;28;20034;-74
2022/02/26 09:28:40;;;;;;;2.50;0.40;;;8.00;53.30;;;;;;4959086;28;20049;-73
2022/02/26 09:31:06;;;;;;;5.60;0.20;;;8.10;52.50;;;;;;4971611;28;20042;-73
2022/02/26 09:33:32;;;;;;;0.93;0.20;;;8.10;53.10;;;;;;4967769;28;20428;-73
2022/02/26 09:35:59;;;;;;;0.35;0.13;;;8.10;52.40;;;;;;4952456;28;20187;-74
2022/02/26 09:38:26;;;;;;;0.47;0.10;;;8.10;52.90;;;;;;4951305;28;20030;-74
2022/02/26 09:40:57;;;;;;;2.17;0.20;;;8.20;53.40;;;;;;4949872;28;20063;-75
2022/02/26 09:43:23;;;;;;;1.38;0.20;;;8.20;53.30;;;;;;4953131;28;20027;-73
2022/02/26 09:45:50;;;;;;;0.82;0.30;;;8.30;52.90;;;;;;4950461;28;20105;-74
2022/02/26 09:48:16;;;;;;;0.38;0.10;;;8.30;52.40;;;;;;4949816;28;20042;-74
2022/02/26 09:50:42;;;;;;;0.35;0.10;;;8.40;51.00;;;;;;4954948;28;20049;-74
2022/02/26 09:53:11;;;;;;;0.47;0.20;;;8.60;52.70;;;;;;4951720;28;20031;-74
2022/02/26 09:55:37;;;;;;;0.82;0.25;;;8.50;51.10;;;;;;4950785;28;20030;-74
2022/02/26 09:58:03;;;;;;;2.35;0.88;;;8.50;51.80;;;;;;4952821;28;20045;-74
2022/02/26 10:00:29;;;;;;;0.43;0.10;;;8.70;52.60;;;;;;4950254;28;20034;-74
2022/02/26 10:02:55;;;;;;;3.17;0.30;;;8.70;53.20;;;;;;4951580;28;20114;-74
2022/02/26 10:05:21;;;;;;;0.65;0.30;;;8.70;51.90;;;;;;4954979;28;20485;-74
2022/02/26 10:07:49;;;;;;;0.25;0.00;;;8.60;51.80;;;;;;4957178;28;20577;-74
2022/02/26 10:10:20;;;;;;;1.95;0.40;;;8.70;52.00;;;;;;4955274;28;20027;-73
2022/02/26 10:12:57;;;;;;;2.05;0.20;;;8.80;52.00;;;;;;4945532;28;20398;-74
2022/02/26 10:15:35;;;;;;;0.90;0.10;;;8.90;52.50;;;;;;4956670;28;20057;-74
2022/02/26 10:18:13;;;;;;;0.43;0.20;;;8.90;52.30;;;;;;4956590;28;20031;-74
2022/02/26 10:20:46;;;;;;;0.68;0.20;;;9.20;51.10;;;;;;4953911;28;20030;-74
2022/02/26 10:23:15;;;;;;;0.30;0.10;;;9.00;51.70;;;;;;4954856;28;20046;-74
2022/02/26 10:25:41;;;;;;;0.90;0.20;;;8.90;52.20;;;;;;4959542;28;20066;-73
2022/02/26 10:28:11;;;;;;;1.02;0.22;;;8.90;52.10;;;;;;4954685;28;20160;-73
2022/02/26 10:30:44;;;;;;;0.82;0.60;;;8.90;51.50;;;;;;4955336;28;20165;-74
2022/02/26 10:33:10;;;;;;;0.43;0.40;;;9.10;51.00;;;;;;4955537;28;20022;-73
2022/02/26 10:35:43;;;;;;;0.10;0.10;;;9.40;51.70;;;;;;4953715;28;20137;-74
2022/02/26 10:38:12;;;;;;;1.00;0.50;;;9.50;51.00;;;;;;4970412;28;20477;-74
2022/02/26 10:41:03;;;;;;;0.68;0.10;;;9.50;51.20;;;;;;4968259;28;20027;-74
2022/02/26 10:43:53;;;;;;;0.90;0.20;;;9.40;50.80;;;;;;4964795;28;20165;-74
2022/02/26 10:46:21;;;;;;;1.75;0.50;;;9.40;49.50;;;;;;4969735;28;20030;-76
2022/02/26 10:48:52;;;;;;;0.70;0.20;;;9.40;50.60;;;;;;4966769;28;20046;-74
2022/02/26 10:51:27;;;;;;;0.17;0.03;;;9.40;50.70;;;;;;4970896;28;20097;-74
2022/02/26 10:53:53;;;;;;;0.80;0.28;;;9.40;50.90;;;;;;4967653;28;20034;-74
2022/02/26 10:56:19;;;;;;;2.97;0.38;;;9.40;50.80;;;;;;4969121;28;20473;-74
2022/02/26 10:58:45;;;;;;;0.40;0.28;;;9.50;49.70;;;;;;4969102;28;20042;-74
2022/02/26 11:01:15;;;;;;;0.35;0.10;;;9.70;51.50;;;;;;4976341;28;20629;-74
2022/02/26 11:03:41;;;;;;;0.65;0.20;;;9.70;49.80;;;;;;4967334;28;20061;-75
2022/02/26 11:06:09;;;;;;;0.90;0.65;;;9.70;50.10;;;;;;4969284;28;20026;-74
2022/02/26 11:08:36;;;;;;;2.90;0.65;;;9.80;50.50;;;;;;4968709;28;20038;-74
2022/02/26 11:11:04;;;;;;;0.55;0.30;;;9.80;50.30;;;;;;4967666;28;20035;-72
2022/02/26 11:13:31;;;;;;;0.20;0.10;;;9.80;49.80;;;;;;4967921;28;20554;-74
2022/02/26 11:15:58;;;;;;;0.22;0.10;;;9.80;49.60;;;;;;4967941;28;20114;-74
2022/02/26 11:18:29;;;;;;;0.95;0.38;;;10.00;50.60;;;;;;4967467;28;20039;-74
2022/02/26 11:20:57;;;;;;;0.60;0.20;;;10.10;50.50;;;;;;4966463;28;20027;-74
2022/02/26 11:23:24;;;;;;;1.17;0.47;;;10.10;50.30;;;;;;4966783;28;20042;-74
2022/02/26 11:25:52;;;;;;;0.43;0.20;;;10.10;49.70;;;;;;4968162;28;20114;-74
2022/02/26 11:28:19;;;;;;;0.90;0.40;;;10.10;49.60;;;;;;4966234;28;20697;-74
2022/02/26 11:30:54;;;;;;;2.42;0.20;;;10.40;50.30;;;;;;4965663;28;20066;-73
2022/02/26 11:33:20;;;;;;;0.30;0.10;;;10.40;49.90;;;;;;4966089;28;20038;-74
2022/02/26 11:35:54;;;;;;;0.90;0.22;;;10.10;48.40;;;;;;4967052;28;20053;-74
2022/02/26 11:38:22;;;;;;;0.43;0.13;;;10.30;49.70;;;;;;4966719;28;20032;-74
2022/02/26 11:40:49;;;;;;;0.32;0.20;;;10.40;49.30;;;;;;4967204;28;20639;-74
2022/02/26 11:43:35;;;;;;;0.30;0.00;;;10.40;48.20;;;;;;4963352;28;20046;-74
2022/02/26 11:46:16;;;;;;;0.57;0.13;;;10.40;49.00;;;;;;4966521;28;20042;-74
2022/02/26 11:48:42;;;;;;;2.75;0.30;;;10.50;49.10;;;;;;4960971;28;20109;-74
2022/02/26 11:51:12;;;;;;;1.60;0.10;;;10.60;48.50;;;;;;4968076;28;20042;-74
2022/02/26 11:53:46;;;;;;;0.63;0.10;;;10.60;48.50;;;;;;4965909;28;20089;-74
2022/02/26 11:56:12;;;;;;;0.00;0.00;;;10.60;48.00;;;;;;4966648;28;20049;-72
2022/02/26 11:58:39;;;;;;;0.80;0.17;;;10.60;47.00;;;;;;4966559;28;20038;-74
2022/02/26 12:01:16;;;;;;;0.65;0.08;;;10.70;47.70;;;;;;4966379;28;20043;-74
2022/02/26 12:03:43;;;;;;;1.48;0.10;;;10.80;48.10;;;;;;4968427;28;20125;-74
2022/02/26 12:06:08;;;;;;;0.45;0.32;;;10.70;48.30;;;;;;4966473;28;20477;-74
2022/02/26 12:08:55;;;;;;;1.33;0.35;;;10.80;48.40;;;;;;4966888;28;20118;-74
2022/02/26 12:11:21;;;;;;;0.57;0.30;;;10.80;47.90;;;;;;4961835;28;20525;-74
2022/02/26 12:14:05;;;;;;;1.10;0.20;;;10.90;48.30;;;;;;4967959;28;20105;-74
2022/02/26 12:16:36;;;;;;;2.25;0.20;;;11.00;48.50;;;;;;4969162;28;20034;-74
2022/02/26 12:19:28;;;;;;;0.08;0.00;;;10.80;47.50;;;;;;4969693;28;20042;-74
2022/02/26 12:22:02;;;;;;;0.63;0.20;;;10.80;47.10;;;;;;4961260;28;20066;-74
2022/02/26 12:24:33;;;;;;;1.20;0.30;;;10.90;47.20;;;;;;4969834;28;20030;-74
2022/02/26 12:26:58;;;;;;;0.15;0.10;;;10.90;46.60;;;;;;4967325;28;20513;-75
2022/02/26 12:29:32;;;;;;;0.80;0.20;;;11.10;47.30;;;;;;4975113;28;20039;-75
2022/02/26 12:32:06;;;;;;;0.15;0.10;;;11.20;47.30;;;;;;4975114;28;20466;-74
2022/02/26 12:34:47;;;;;;;0.32;0.13;;;11.20;46.90;;;;;;4965146;28;20069;-75
2022/02/26 12:37:26;;;;;;;2.88;0.20;;;11.20;46.80;;;;;;4968703;28;20393;-74
2022/02/26 12:40:07;;;;;;;0.85;0.20;;;11.10;47.70;;;;;;4969095;28;20038;-74
2022/02/26 12:42:38;;;;;;;0.30;0.20;;;11.10;47.00;;;;;;4969348;28;20041;-74
2022/02/26 12:45:08;;;;;;;2.15;0.93;;;11.10;46.90;;;;;;4964569;28;20599;-74
2022/02/26 12:47:35;;;;;;;0.52;0.15;;;11.20;46.60;;;;;;4963372;28;20077;-75
2022/02/26 12:50:02;;;;;;;0.75;0.20;;;11.20;46.90;;;;;;4967401;28;20074;-74
2022/02/26 12:52:34;;;;;;;0.30;0.10;;;11.20;46.40;;;;;;4967090;28;20055;-75
2022/02/26 12:55:04;;;;;;;0.70;0.15;;;11.20;45.80;;;;;;4966555;28;20110;-74